Time;durP1;ratioP1;P1;durP2;ratioP2;P2;SDS_P1;SDS_P2;PMS_P1;PMS_P2;Temp;Humidity;BMP_temperature;BMP_pressure;BME280_temperature;BME280_humidity;BME280_pressure;Samples;Min_cycle;Max_cycle;Signal;HPM_P1;HPM_P2
2023/10/24 00:00:45;;;;;;;3.88;1.45;;;25.50;99.90;;;;;;4961453;29;20212;-80
2023/10/24 00:03:19;;;;;;;5.05;1.50;;;25.60;99.90;;;;;;4967500;28;20203;-79
2023/10/24 00:05:52;;;;;;;4.07;1.35;;;25.70;99.90;;;;;;4980420;28;20234;-78
2023/10/24 00:08:24;;;;;;;7.43;1.70;;;25.70;99.90;;;;;;4989100;28;20318;-79
2023/10/24 00:11:16;;;;;;;4.60;1.65;;;25.90;99.90;;;;;;4975471;28;20238;-79
2023/10/24 00:13:58;;;;;;;9.18;1.67;;;26.00;99.90;;;;;;4972741;28;20204;-79
2023/10/24 00:16:31;;;;;;;6.10;1.60;;;26.20;99.90;;;;;;4979145;28;20200;-79
2023/10/24 00:19:05;;;;;;;5.85;1.73;;;26.20;99.90;;;;;;4982117;28;20727;-78
2023/10/24 00:21:36;;;;;;;5.13;1.67;;;26.20;99.90;;;;;;4981854;28;20260;-79
2023/10/24 00:24:08;;;;;;;7.20;1.80;;;26.30;99.90;;;;;;4995339;28;20253;-80
2023/10/24 00:26:43;;;;;;;6.07;1.88;;;26.30;99.90;;;;;;4985754;28;20214;-79
2023/10/24 00:29:16;;;;;;;6.93;2.42;;;26.30;99.90;;;;;;4980728;28;20207;-78
2023/10/24 00:31:56;;;;;;;8.48;2.20;;;26.30;99.90;;;;;;4973106;28;20203;-79
2023/10/24 00:34:27;;;;;;;8.45;2.22;;;26.50;99.90;;;;;;4976857;28;20207;-79
2023/10/24 00:36:59;;;;;;;10.77;2.42;;;26.50;99.90;;;;;;4985381;28;20225;-78
2023/10/24 00:39:47;;;;;;;9.60;2.35;;;26.50;99.90;;;;;;4973404;28;20323;-79
2023/10/24 00:42:19;;;;;;;6.40;1.98;;;26.40;99.90;;;;;;4968886;28;20234;-78
2023/10/24 00:44:51;;;;;;;6.93;1.88;;;26.40;99.90;;;;;;4978975;28;20203;-79
2023/10/24 00:47:23;;;;;;;8.73;2.17;;;26.50;99.90;;;;;;4969243;28;20203;-79
2023/10/24 00:49:55;;;;;;;9.07;2.00;;;26.60;99.90;;;;;;4974411;28;20206;-78
2023/10/24 00:52:26;;;;;;;9.50;2.05;;;26.60;99.90;;;;;;4962727;28;20203;-79
2023/10/24 00:54:57;;;;;;;5.82;1.83;;;26.60;99.90;;;;;;4952460;29;20244;-79
2023/10/24 00:57:30;;;;;;;5.95;1.90;;;26.60;99.90;;;;;;4951288;29;20227;-77
2023/10/24 01:00:06;;;;;;;6.38;1.90;;;26.60;99.90;;;;;;4938512;29;20232;-79
2023/10/24 01:02:40;;;;;;;8.52;2.15;;;26.70;99.90;;;;;;4952752;29;20724;-79
2023/10/24 01:05:13;;;;;;;6.88;1.85;;;26.90;99.90;;;;;;4958057;29;20691;-79
2023/10/24 01:07:44;;;;;;;6.00;2.05;;;27.00;99.90;;;;;;4958967;28;20211;-79
2023/10/24 01:10:16;;;;;;;7.53;2.30;;;27.00;99.90;;;;;;4964581;28;20278;-79
2023/10/24 01:12:47;;;;;;;7.55;1.90;;;27.00;99.90;;;;;;4968246;28;20690;-79
2023/10/24 01:15:23;;;;;;;5.47;1.80;;;27.00;99.90;;;;;;4968868;28;20212;-80
2023/10/24 01:17:55;;;;;;;14.63;2.05;;;27.00;99.90;;;;;;4953028;29;20212;-80
2023/10/24 01:20:26;;;;;;;6.10;1.67;;;27.10;99.90;;;;;;4935447;29;20215;-79
2023/10/24 01:23:00;;;;;;;5.30;1.60;;;27.10;99.90;;;;;;4954182;28;20291;-79
2023/10/24 01:25:37;;;;;;;5.20;1.60;;;27.20;99.90;;;;;;4954301;28;20204;-79
2023/10/24 01:28:11;;;;;;;5.75;1.95;;;27.20;99.90;;;;;;4955934;28;20215;-79
2023/10/24 01:30:45;;;;;;;6.88;1.90;;;27.20;99.90;;;;;;4955020;28;20229;-78
2023/10/24 01:33:19;;;;;;;5.93;1.80;;;27.20;99.90;;;;;;4956218;29;20247;-78
2023/10/24 01:35:53;;;;;;;4.45;1.58;;;27.20;99.90;;;;;;4957247;29;20259;-78
2023/10/24 01:38:28;;;;;;;6.47;1.88;;;27.20;99.90;;;;;;4954224;28;20314;-78
2023/10/24 01:41:01;;;;;;;6.40;1.67;;;27.30;99.90;;;;;;4959401;28;20578;-78
2023/10/24 01:43:33;;;;;;;4.65;1.70;;;27.20;99.90;;;;;;4960079;28;20230;-79
2023/10/24 01:46:05;;;;;;;9.82;1.80;;;26.80;99.90;;;;;;4956463;28;20781;-78
2023/10/24 01:48:36;;;;;;;5.38;1.55;;;26.90;99.90;;;;;;4955491;28;20205;-79
2023/10/24 01:51:08;;;;;;;8.77;1.90;;;26.70;99.90;;;;;;4958428;28;20208;-80
2023/10/24 01:53:44;;;;;;;7.07;1.80;;;26.60;99.90;;;;;;4956423;28;20287;-79
2023/10/24 01:56:15;;;;;;;5.63;1.60;;;26.80;99.90;;;;;;4953411;29;20236;-80
2023/10/24 01:58:46;;;;;;;4.38;1.63;;;26.80;99.90;;;;;;4964217;28;20266;-78
2023/10/24 02:01:18;;;;;;;3.30;1.73;;;26.70;99.90;;;;;;4977066;28;20216;-79
2023/10/24 02:03:50;;;;;;;4.43;1.50;;;26.50;99.90;;;;;;4972385;28;20219;-80
2023/10/24 02:06:21;;;;;;;4.88;1.50;;;26.50;99.90;;;;;;4967200;28;20282;-79
2023/10/24 02:08:54;;;;;;;4.47;1.73;;;26.50;99.90;;;;;;4962355;28;20198;-80
2023/10/24 02:11:26;;;;;;;4.90;1.70;;;26.50;99.90;;;;;;4995116;28;20202;-80
2023/10/24 02:13:57;;;;;;;11.10;2.15;;;26.50;99.90;;;;;;4978628;28;20278;-80
2023/10/24 02:16:30;;;;;;;4.63;1.88;;;26.50;99.90;;;;;;4987960;28;20194;-80
2023/10/24 02:21:34;;;;;;;6.28;2.30;;;26.70;99.90;;;;;;5011889;28;20230;-80
2023/10/24 02:24:08;;;;;;;9.10;2.00;;;26.60;99.90;;;;;;5014101;28;20703;-79
2023/10/24 02:26:39;;;;;;;4.28;1.60;;;26.70;99.90;;;;;;5013099;28;20212;-80
2023/10/24 02:29:14;;;;;;;5.40;1.77;;;26.60;99.90;;;;;;5025328;28;20684;-80
2023/10/24 02:31:46;;;;;;;4.15;1.50;;;26.70;99.90;;;;;;5015016;28;20190;-80
2023/10/24 02:34:21;;;;;;;4.68;1.88;;;26.80;99.90;;;;;;5014266;28;20629;-79
2023/10/24 02:37:00;;;;;;;6.53;1.75;;;26.90;99.90;;;;;;5006576;28;20666;-79
2023/10/24 02:39:37;;;;;;;8.70;2.00;;;27.00;99.90;;;;;;4999757;28;20288;-79
2023/10/24 02:42:13;;;;;;;5.28;2.05;;;27.20;99.90;;;;;;5022367;28;20201;-79
2023/10/24 02:44:54;;;;;;;4.93;1.95;;;27.20;99.90;;;;;;5014856;28;20646;-78
2023/10/24 02:47:33;;;;;;;5.95;1.98;;;27.10;99.90;;;;;;4997089;28;20202;-77
2023/10/24 02:50:08;;;;;;;6.60;2.08;;;27.20;99.90;;;;;;4996258;28;20229;-79
2023/10/24 02:52:39;;;;;;;4.07;2.17;;;27.40;99.90;;;;;;4999367;28;20202;-78
2023/10/24 02:55:15;;;;;;;4.25;2.00;;;27.30;99.90;;;;;;5011398;28;20662;-78
2023/10/24 02:57:46;;;;;;;6.13;1.90;;;27.50;99.90;;;;;;5013233;28;20267;-77
2023/10/24 03:00:19;;;;;;;8.48;2.20;;;27.50;99.90;;;;;;5011509;28;20209;-76
2023/10/24 03:02:54;;;;;;;6.40;2.10;;;27.70;99.90;;;;;;5014030;28;20198;-79
2023/10/24 03:05:26;;;;;;;8.10;2.15;;;27.80;99.90;;;;;;5013396;28;20213;-78
2023/10/24 03:08:09;;;;;;;4.82;1.90;;;27.70;99.90;;;;;;5037018;28;20232;-78
2023/10/24 03:10:49;;;;;;;6.07;2.13;;;27.80;99.90;;;;;;5029049;28;20258;-80
2023/10/24 03:13:34;;;;;;;7.68;2.00;;;27.60;99.90;;;;;;5031740;28;20194;-79
2023/10/24 03:16:07;;;;;;;6.68;2.22;;;27.60;99.90;;;;;;5029019;28;20225;-79
2023/10/24 03:18:42;;;;;;;6.10;2.42;;;27.80;99.90;;;;;;5011303;28;20257;-78
2023/10/24 03:21:25;;;;;;;5.88;2.40;;;27.80;99.90;;;;;;5003133;28;20234;-78
2023/10/24 03:23:59;;;;;;;7.28;2.63;;;28.00;99.70;;;;;;4985122;28;20250;-77
2023/10/24 03:26:52;;;;;;;7.35;3.20;;;28.00;98.40;;;;;;5011355;28;20198;-78
2023/10/24 03:29:26;;;;;;;7.82;3.17;;;28.10;99.90;;;;;;5021842;28;20213;-78
2023/10/24 03:32:02;;;;;;;9.30;3.20;;;28.10;99.90;;;;;;5002489;28;20210;-78
2023/10/24 03:34:38;;;;;;;9.23;3.42;;;28.10;99.90;;;;;;4985457;28;20230;-79
2023/10/24 03:37:09;;;;;;;9.63;3.47;;;28.20;99.90;;;;;;4979087;28;20206;-79
2023/10/24 03:39:46;;;;;;;7.10;3.80;;;28.30;99.90;;;;;;4993247;28;20593;-77
2023/10/24 03:42:22;;;;;;;9.38;4.25;;;28.30;99.90;;;;;;4995991;28;20201;-78
2023/10/24 03:44:55;;;;;;;8.52;3.85;;;28.50;99.90;;;;;;4995398;28;20564;-78
2023/10/24 03:47:29;;;;;;;10.00;3.78;;;28.60;99.90;;;;;;4991757;28;20207;-79
2023/10/24 03:50:03;;;;;;;11.45;4.15;;;28.40;99.90;;;;;;4989748;28;20597;-79
2023/10/24 03:52:35;;;;;;;11.50;4.50;;;28.50;99.90;;;;;;4994554;28;20206;-79
2023/10/24 03:55:08;;;;;;;13.20;3.95;;;28.50;99.90;;;;;;4994590;28;20550;-79
2023/10/24 03:57:54;;;;;;;11.98;4.35;;;28.60;99.90;;;;;;4996238;28;20203;-80
2023/10/24 04:00:28;;;;;;;8.63;3.83;;;28.60;99.90;;;;;;4990475;28;20214;-81
2023/10/24 04:03:05;;;;;;;9.57;3.90;;;28.40;99.90;;;;;;4993321;28;20202;-80
2023/10/24 04:05:43;;;;;;;9.30;3.70;;;28.50;99.90;;;;;;4960460;28;20560;-80
2023/10/24 04:08:21;;;;;;;12.65;4.05;;;28.70;99.90;;;;;;4989780;28;20206;-79
2023/10/24 04:10:58;;;;;;;7.97;3.33;;;28.60;99.90;;;;;;4997372;28;20269;-79
2023/10/24 04:13:31;;;;;;;10.77;3.63;;;28.70;99.90;;;;;;4979674;28;20202;-79
2023/10/24 04:16:06;;;;;;;9.27;4.00;;;28.90;99.90;;;;;;4999233;28;20286;-80
2023/10/24 04:18:36;;;;;;;8.85;3.72;;;28.90;99.90;;;;;;4992853;28;20226;-80
2023/10/24 04:21:12;;;;;;;9.43;3.63;;;28.80;99.90;;;;;;4991543;28;20240;-78
2023/10/24 04:23:45;;;;;;;12.10;3.45;;;28.80;99.90;;;;;;5008198;28;20221;-79
2023/10/24 04:26:36;;;;;;;5.90;3.22;;;28.70;99.90;;;;;;4999189;28;20229;-79
2023/10/24 04:29:14;;;;;;;8.63;3.22;;;28.70;99.90;;;;;;4993828;28;20280;-79
2023/10/24 04:31:57;;;;;;;10.20;3.42;;;28.80;99.90;;;;;;4993981;28;20685;-78
2023/10/24 04:34:29;;;;;;;10.10;3.38;;;28.80;99.90;;;;;;4986061;28;20196;-78
2023/10/24 04:37:02;;;;;;;8.45;3.13;;;28.80;99.90;;;;;;5004951;28;20293;-78
2023/10/24 04:39:36;;;;;;;8.77;3.35;;;28.90;99.90;;;;;;5011953;28;20230;-79
2023/10/24 04:42:07;;;;;;;7.85;3.65;;;28.90;99.90;;;;;;4995685;28;20205;-79
2023/10/24 04:44:51;;;;;;;10.82;3.40;;;29.00;99.90;;;;;;4988573;28;20223;-79
2023/10/24 04:47:21;;;;;;;9.70;3.17;;;29.00;99.90;;;;;;4993100;28;20216;-80
2023/10/24 04:49:58;;;;;;;10.88;3.20;;;29.10;99.90;;;;;;4992003;28;20198;-79
2023/10/24 04:52:30;;;;;;;9.90;3.25;;;29.40;99.90;;;;;;4979543;28;20198;-79
2023/10/24 04:55:07;;;;;;;11.13;3.60;;;29.50;99.90;;;;;;4985145;28;20286;-80
2023/10/24 04:57:41;;;;;;;10.15;2.80;;;29.60;99.90;;;;;;4978587;28;20238;-80
2023/10/24 05:00:19;;;;;;;11.88;3.42;;;29.40;99.90;;;;;;5000545;28;20247;-79
2023/10/24 05:02:50;;;;;;;13.50;3.90;;;29.60;99.90;;;;;;5001360;28;20202;-79
2023/10/24 05:05:27;;;;;;;9.80;3.20;;;29.70;99.90;;;;;;5007180;28;20218;-80
2023/10/24 05:08:00;;;;;;;10.75;3.30;;;29.50;99.90;;;;;;4979425;28;20199;-79
2023/10/24 05:10:32;;;;;;;8.50;3.00;;;29.60;99.90;;;;;;4961580;28;20670;-80
2023/10/24 05:13:06;;;;;;;14.30;3.45;;;29.80;99.90;;;;;;4981201;28;20199;-80
2023/10/24 05:15:39;;;;;;;9.55;2.80;;;29.80;99.90;;;;;;4993396;28;20322;-80
2023/10/24 05:18:11;;;;;;;11.55;3.15;;;30.10;99.90;;;;;;4999186;28;20253;-79
2023/10/24 05:20:46;;;;;;;10.30;3.30;;;30.40;99.90;;;;;;5023961;28;20658;-79
2023/10/24 05:23:19;;;;;;;9.77;3.40;;;30.50;99.90;;;;;;5028727;28;20217;-79
2023/10/24 05:25:53;;;;;;;14.73;3.35;;;30.40;99.90;;;;;;5017142;28;20205;-79
2023/10/24 05:28:25;;;;;;;9.57;3.30;;;30.20;99.90;;;;;;4991642;28;20282;-79
2023/10/24 05:31:10;;;;;;;8.55;2.90;;;30.20;99.90;;;;;;4986800;28;20230;-79
2023/10/24 05:33:46;;;;;;;12.88;3.13;;;30.50;99.90;;;;;;4995184;28;20201;-79
2023/10/24 05:36:20;;;;;;;9.95;3.42;;;30.40;99.90;;;;;;4994729;28;20206;-81
2023/10/24 05:38:56;;;;;;;11.30;3.00;;;30.60;99.90;;;;;;4988245;28;20226;-79
2023/10/24 05:41:31;;;;;;;9.95;3.50;;;30.80;99.90;;;;;;5012909;28;20204;-79
2023/10/24 05:44:04;;;;;;;9.70;3.40;;;30.80;99.90;;;;;;4996494;28;20203;-78
2023/10/24 05:46:37;;;;;;;11.57;3.22;;;31.00;99.90;;;;;;4989015;28;20203;-78
2023/10/24 05:49:09;;;;;;;9.88;3.08;;;31.10;99.90;;;;;;4998242;28;20212;-78
2023/10/24 05:51:41;;;;;;;7.72;3.20;;;31.20;99.90;;;;;;4992192;28;20210;-80
2023/10/24 05:54:17;;;;;;;11.77;3.50;;;31.40;99.90;;;;;;4991544;28;20203;-79
2023/10/24 05:57:01;;;;;;;12.45;3.78;;;31.20;99.90;;;;;;4998917;28;20204;-79
2023/10/24 05:59:39;;;;;;;10.82;3.13;;;31.30;99.90;;;;;;5001862;28;20339;-79
2023/10/24 06:02:21;;;;;;;13.73;3.63;;;31.30;99.90;;;;;;4985138;28;20213;-78
2023/10/24 06:04:52;;;;;;;11.27;3.38;;;31.30;99.90;;;;;;4982737;28;20222;-79
2023/10/24 06:07:23;;;;;;;10.23;3.67;;;31.60;99.90;;;;;;4990360;28;20207;-80
2023/10/24 06:09:55;;;;;;;16.73;4.07;;;31.60;99.90;;;;;;4991353;28;20226;-79
2023/10/24 06:12:33;;;;;;;12.68;4.00;;;31.30;99.90;;;;;;4995891;28;20261;-80
2023/10/24 06:15:08;;;;;;;11.27;3.42;;;31.00;99.90;;;;;;4981341;28;20309;-80
2023/10/24 06:17:55;;;;;;;9.80;3.13;;;31.10;99.90;;;;;;4992744;28;20218;-80
2023/10/24 06:20:27;;;;;;;11.63;3.45;;;30.90;99.90;;;;;;4990525;28;20248;-80
2023/10/24 06:23:00;;;;;;;11.43;3.40;;;30.40;99.90;;;;;;4983163;28;20246;-80
2023/10/24 06:25:32;;;;;;;11.88;3.17;;;30.60;99.90;;;;;;4995280;28;20242;-80
2023/10/24 06:28:05;;;;;;;11.23;3.45;;;30.80;99.90;;;;;;5002730;28;20201;-78
2023/10/24 06:30:43;;;;;;;9.48;3.17;;;30.80;99.90;;;;;;5000849;28;20205;-79
2023/10/24 06:33:23;;;;;;;14.23;3.55;;;30.90;99.90;;;;;;4974955;28;20203;-78
2023/10/24 06:36:02;;;;;;;15.13;3.55;;;31.30;99.90;;;;;;4966478;28;20195;-78
2023/10/24 06:38:40;;;;;;;11.18;3.10;;;31.60;99.90;;;;;;4995338;28;20679;-78
2023/10/24 06:41:17;;;;;;;14.40;3.58;;;31.90;99.90;;;;;;4990965;28;20326;-78
2023/10/24 06:43:52;;;;;;;13.35;3.45;;;31.90;99.90;;;;;;4975312;28;20305;-78
2023/10/24 06:46:26;;;;;;;13.35;3.50;;;31.80;99.90;;;;;;4982482;28;20237;-78
2023/10/24 06:52:07;;;;;;;14.07;3.83;;;31.60;99.90;;;;;;5013398;28;20382;-78
2023/10/24 06:57:30;;;;;;;10.88;3.45;;;31.50;99.90;;;;;;4994697;28;20559;-78
2023/10/24 07:00:04;;;;;;;17.42;3.63;;;31.20;99.90;;;;;;4995346;28;20292;-78
2023/10/24 07:02:39;;;;;;;15.80;3.80;;;31.40;99.90;;;;;;4995479;28;20206;-78
2023/10/24 07:05:12;;;;;;;9.82;3.45;;;31.20;99.90;;;;;;4992435;28;20281;-77
2023/10/24 07:07:52;;;;;;;15.52;4.18;;;31.10;99.90;;;;;;4999237;28;20191;-76
2023/10/24 07:10:26;;;;;;;12.73;3.60;;;30.90;99.90;;;;;;5019136;28;20202;-77
2023/10/24 07:12:58;;;;;;;13.73;3.90;;;30.70;99.90;;;;;;5028027;28;20221;-77
2023/10/24 07:15:34;;;;;;;10.70;3.83;;;30.60;99.90;;;;;;5025204;28;20227;-77
2023/10/24 07:18:15;;;;;;;15.70;4.30;;;30.30;99.90;;;;;;4996452;23;20630;-77
2023/10/24 07:21:00;;;;;;;11.95;4.07;;;30.00;99.90;;;;;;4997621;28;20230;-76
2023/10/24 07:23:36;;;;;;;12.57;4.00;;;29.70;99.90;;;;;;4981831;28;20231;-77
2023/10/24 07:26:10;;;;;;;13.13;4.20;;;29.50;99.90;;;;;;4983110;28;20217;-77
2023/10/24 07:28:43;;;;;;;13.45;4.57;;;29.10;99.90;;;;;;5009151;28;20250;-77
2023/10/24 07:31:16;;;;;;;14.05;4.05;;;28.60;99.90;;;;;;5101132;23;20242;-77
2023/10/24 07:33:50;;;;;;;12.93;4.47;;;28.20;99.90;;;;;;5018911;28;20210;-77
2023/10/24 07:36:31;;;;;;;12.40;4.03;;;27.80;99.90;;;;;;5013503;28;20186;-77
2023/10/24 07:39:05;;;;;;;17.50;3.90;;;27.60;99.90;;;;;;5013256;28;20232;-77
2023/10/24 07:41:51;;;;;;;15.70;4.85;;;27.30;99.90;;;;;;5014018;28;20211;-77
2023/10/24 07:44:24;;;;;;;16.27;5.05;;;27.00;99.90;;;;;;4993556;28;20577;-77
2023/10/24 07:46:55;;;;;;;14.07;4.60;;;26.70;99.90;;;;;;5012202;28;20584;-78
2023/10/24 07:49:26;;;;;;;15.20;4.43;;;26.50;99.90;;;;;;5012127;28;20548;-77
2023/10/24 07:52:00;;;;;;;14.93;4.45;;;26.20;99.90;;;;;;5012269;28;20559;-77
2023/10/24 07:54:32;;;;;;;17.35;4.50;;;26.10;99.90;;;;;;5014089;28;20279;-77
2023/10/24 07:57:09;;;;;;;13.13;4.90;;;26.00;99.90;;;;;;5013275;28;20669;-78
2023/10/24 07:59:47;;;;;;;16.00;4.70;;;25.80;99.90;;;;;;5013610;28;20577;-77
2023/10/24 08:02:22;;;;;;;14.75;5.28;;;25.80;99.90;;;;;;5014319;28;20198;-78
2023/10/24 08:04:54;;;;;;;16.90;4.38;;;25.50;99.90;;;;;;5014871;28;20205;-78
2023/10/24 08:07:27;;;;;;;16.52;4.70;;;25.30;99.90;;;;;;5012638;28;20202;-79
2023/10/24 08:09:58;;;;;;;12.43;4.45;;;25.20;99.90;;;;;;5011722;28;20273;-77
2023/10/24 08:12:29;;;;;;;17.02;4.70;;;25.00;99.90;;;;;;5013307;28;20654;-78
2023/10/24 08:15:00;;;;;;;14.52;4.30;;;25.00;99.90;;;;;;5011665;28;20181;-78
2023/10/24 08:17:31;;;;;;;15.15;4.60;;;25.00;99.90;;;;;;5022204;28;20186;-78
2023/10/24 08:20:02;;;;;;;13.68;4.13;;;24.90;99.90;;;;;;5013104;28;20234;-78
2023/10/24 08:22:36;;;;;;;14.82;4.30;;;24.80;99.90;;;;;;4996657;28;20195;-78
2023/10/24 08:25:08;;;;;;;16.10;4.50;;;24.80;99.90;;;;;;4993191;28;20213;-78
2023/10/24 08:27:39;;;;;;;16.20;4.82;;;24.80;99.90;;;;;;4996620;28;20207;-77
2023/10/24 08:30:20;;;;;;;16.15;4.70;;;24.70;99.90;;;;;;4996076;28;20210;-77
2023/10/24 08:32:52;;;;;;;19.17;4.70;;;24.70;99.90;;;;;;5008139;28;20233;-77
2023/10/24 08:35:24;;;;;;;15.75;5.00;;;24.70;99.90;;;;;;5011938;28;20816;-78
2023/10/24 08:37:59;;;;;;;16.98;4.68;;;24.70;99.90;;;;;;4976821;28;20207;-78
2023/10/24 08:40:32;;;;;;;15.50;4.57;;;24.60;99.90;;;;;;4980916;28;20233;-77
2023/10/24 08:43:04;;;;;;;15.63;4.53;;;24.60;99.90;;;;;;4996913;28;20210;-77
2023/10/24 08:45:38;;;;;;;16.35;5.00;;;24.60;99.90;;;;;;4996707;28;20290;-77
2023/10/24 08:48:11;;;;;;;19.30;4.68;;;24.60;99.90;;;;;;4997056;28;20213;-77
2023/10/24 08:50:45;;;;;;;21.40;5.60;;;24.60;99.90;;;;;;4996854;28;20206;-78
2023/10/24 08:53:26;;;;;;;12.43;4.00;;;24.60;99.90;;;;;;4992270;28;20282;-77
2023/10/24 08:55:59;;;;;;;13.18;4.65;;;24.50;99.90;;;;;;4977372;28;20217;-77
2023/10/24 08:58:38;;;;;;;17.38;4.78;;;24.50;99.90;;;;;;4991199;28;20202;-78
2023/10/24 09:01:10;;;;;;;17.10;5.00;;;24.50;99.90;;;;;;4994197;28;20238;-76
2023/10/24 09:03:41;;;;;;;15.25;4.30;;;24.50;99.90;;;;;;4992347;28;20199;-78
2023/10/24 09:06:13;;;;;;;15.07;4.53;;;24.50;99.90;;;;;;4993913;28;20207;-77
2023/10/24 09:08:48;;;;;;;14.93;4.68;;;24.50;99.90;;;;;;5011178;28;20249;-79
2023/10/24 09:14:04;;;;;;;14.20;4.15;;;24.40;99.90;;;;;;5000349;28;20210;-80
2023/10/24 09:16:37;;;;;;;19.35;4.63;;;24.40;99.90;;;;;;5002497;28;20287;-78
2023/10/24 09:19:16;;;;;;;14.13;4.55;;;24.30;99.90;;;;;;5000966;28;20225;-77
2023/10/24 09:21:56;;;;;;;15.90;4.57;;;24.30;99.90;;;;;;5003468;28;20314;-78
2023/10/24 09:24:32;;;;;;;17.23;4.85;;;24.30;99.90;;;;;;5002453;28;20234;-77
2023/10/24 09:27:05;;;;;;;13.93;4.38;;;24.30;99.90;;;;;;5004346;28;20587;-77
2023/10/24 09:29:58;;;;;;;19.10;5.05;;;24.30;99.90;;;;;;5002687;28;20195;-79
2023/10/24 09:32:29;;;;;;;19.98;4.78;;;24.30;99.90;;;;;;5001296;28;20195;-77
2023/10/24 09:35:09;;;;;;;18.23;4.78;;;24.20;99.90;;;;;;5004317;28;20223;-77
2023/10/24 09:37:47;;;;;;;15.63;4.40;;;24.20;99.90;;;;;;5012653;28;20225;-77
2023/10/24 09:40:37;;;;;;;17.70;4.70;;;24.10;99.90;;;;;;4998663;28;20222;-78
2023/10/24 09:43:13;;;;;;;18.42;4.63;;;24.10;99.90;;;;;;4989871;28;20218;-77
2023/10/24 09:45:47;;;;;;;14.30;4.82;;;24.10;99.90;;;;;;4994447;28;20229;-81
2023/10/24 09:48:19;;;;;;;16.35;4.88;;;24.10;99.90;;;;;;4992071;28;20278;-76
2023/10/24 09:50:51;;;;;;;16.00;4.53;;;24.00;99.90;;;;;;4998795;28;20219;-78
2023/10/24 09:53:24;;;;;;;14.60;4.72;;;24.10;99.90;;;;;;4965606;28;20215;-78
2023/10/24 09:55:59;;;;;;;13.90;4.28;;;24.10;99.90;;;;;;4996226;28;20188;-77
2023/10/24 09:58:34;;;;;;;16.90;5.22;;;24.10;99.90;;;;;;4996724;28;20199;-81
2023/10/24 10:01:08;;;;;;;19.48;4.88;;;24.00;99.90;;;;;;4997503;28;20226;-79
2023/10/24 10:03:40;;;;;;;17.15;4.85;;;24.00;99.90;;;;;;4997328;28;20203;-79
2023/10/24 10:06:13;;;;;;;13.52;4.50;;;23.90;99.90;;;;;;4995825;28;20303;-79
2023/10/24 10:08:45;;;;;;;20.65;5.05;;;23.90;99.90;;;;;;4998448;28;20199;-79
2023/10/24 10:11:19;;;;;;;18.65;4.72;;;23.90;99.90;;;;;;4995548;28;20194;-78
2023/10/24 10:14:02;;;;;;;16.52;5.10;;;23.90;99.90;;;;;;4999306;28;20194;-78
2023/10/24 10:16:48;;;;;;;19.75;4.63;;;23.90;99.90;;;;;;4963998;28;20219;-76
2023/10/24 10:19:46;;;;;;;16.65;4.25;;;23.90;99.90;;;;;;4987556;28;20230;-80
2023/10/24 10:22:46;;;;;;;17.20;5.10;;;23.90;99.90;;;;;;4994088;28;20198;-79
2023/10/24 10:25:59;;;;;;;13.38;4.22;;;23.80;99.90;;;;;;5000848;28;20202;-78
2023/10/24 10:29:01;;;;;;;16.48;4.68;;;23.80;99.90;;;;;;4988315;28;20226;-79
2023/10/24 10:32:13;;;;;;;14.52;4.15;;;23.80;99.90;;;;;;4993582;28;20234;-81
2023/10/24 10:34:55;;;;;;;13.90;4.22;;;23.80;99.90;;;;;;4923284;29;20215;-79
2023/10/24 10:37:30;;;;;;;18.88;4.88;;;23.70;99.90;;;;;;4992593;28;20207;-78
2023/10/24 10:40:29;;;;;;;12.75;4.53;;;23.70;99.90;;;;;;5011060;28;20241;-78
2023/10/24 10:43:01;;;;;;;20.00;4.95;;;23.60;99.90;;;;;;4995036;28;20214;-81
2023/10/24 10:45:34;;;;;;;16.17;4.88;;;23.60;99.90;;;;;;4999377;28;20220;-79
2023/10/24 10:48:06;;;;;;;17.65;4.90;;;23.60;99.90;;;;;;4994086;28;20681;-77
2023/10/24 10:50:39;;;;;;;22.95;4.80;;;23.50;99.90;;;;;;4988292;28;20222;-78
2023/10/24 10:53:37;;;;;;;18.83;5.30;;;23.50;99.90;;;;;;4991880;28;20435;-78
2023/10/24 10:56:20;;;;;;;16.35;5.00;;;23.50;99.90;;;;;;4991799;28;20203;-77
2023/10/24 10:59:15;;;;;;;13.57;4.45;;;23.50;99.90;;;;;;4993032;28;20198;-78
2023/10/24 11:01:57;;;;;;;17.23;4.40;;;23.50;99.90;;;;;;4974264;28;20629;-78
2023/10/24 11:04:30;;;;;;;15.23;4.60;;;23.50;99.90;;;;;;4990071;28;20214;-77
2023/10/24 11:07:03;;;;;;;15.15;4.57;;;23.50;99.90;;;;;;4973575;28;20282;-78
2023/10/24 11:09:37;;;;;;;12.43;4.30;;;23.50;99.90;;;;;;4984487;28;20199;-78
2023/10/24 11:12:27;;;;;;;15.57;4.43;;;23.50;99.90;;;;;;4989154;28;20204;-77
2023/10/24 11:15:25;;;;;;;17.70;4.65;;;23.40;99.90;;;;;;4987190;28;20197;-78
2023/10/24 11:17:59;;;;;;;16.65;4.63;;;23.40;99.90;;;;;;4989010;28;20248;-79
2023/10/24 11:20:30;;;;;;;13.45;4.30;;;23.40;99.90;;;;;;4990539;28;20258;-77
2023/10/24 11:23:01;;;;;;;12.75;4.45;;;23.30;99.90;;;;;;4990266;28;20287;-79
2023/10/24 11:25:34;;;;;;;18.52;4.78;;;23.40;99.90;;;;;;4988807;28;20206;-78
2023/10/24 11:28:11;;;;;;;15.55;4.63;;;23.30;99.90;;;;;;4984957;28;20234;-78
2023/10/24 11:30:42;;;;;;;13.15;4.05;;;23.30;99.90;;;;;;4984342;28;20234;-79
2023/10/24 11:33:15;;;;;;;16.30;4.80;;;23.30;99.90;;;;;;4993218;28;20247;-78
2023/10/24 11:35:46;;;;;;;15.35;4.88;;;23.30;99.90;;;;;;4992407;28;20195;-77
2023/10/24 11:38:17;;;;;;;15.70;5.10;;;23.30;99.90;;;;;;4990298;28;20199;-78
2023/10/24 11:40:51;;;;;;;15.38;4.68;;;23.30;99.90;;;;;;4983892;28;20238;-78
2023/10/24 11:43:22;;;;;;;17.90;5.45;;;23.30;99.90;;;;;;5004098;28;20230;-79
2023/10/24 11:45:53;;;;;;;15.43;5.30;;;23.20;99.90;;;;;;4987864;28;20291;-79
2023/10/24 11:48:26;;;;;;;13.98;4.70;;;23.20;99.90;;;;;;4989897;28;20207;-81
2023/10/24 11:50:56;;;;;;;15.90;4.68;;;23.10;99.90;;;;;;4991221;28;20203;-79
2023/10/24 11:53:27;;;;;;;12.07;4.70;;;23.10;99.90;;;;;;4991369;28;20206;-79
2023/10/24 11:55:58;;;;;;;14.82;4.63;;;23.10;99.90;;;;;;4987039;28;20199;-77
2023/10/24 11:58:34;;;;;;;12.20;4.43;;;23.10;99.90;;;;;;4989951;28;21070;-76
2023/10/24 12:01:05;;;;;;;16.73;5.00;;;23.10;99.90;;;;;;4992374;28;20226;-77
2023/10/24 12:03:58;;;;;;;17.60;5.03;;;23.10;99.90;;;;;;4990176;28;20277;-78
2023/10/24 12:06:30;;;;;;;20.30;5.00;;;23.10;99.90;;;;;;4990745;28;20202;-77
2023/10/24 12:09:04;;;;;;;19.35;5.07;;;23.00;99.90;;;;;;4990679;28;20202;-78
2023/10/24 12:11:37;;;;;;;11.90;4.20;;;23.00;99.90;;;;;;4986070;28;20226;-79
2023/10/24 12:14:08;;;;;;;16.13;4.85;;;23.10;99.90;;;;;;4989308;28;20198;-79
2023/10/24 12:16:39;;;;;;;16.55;4.72;;;23.10;99.90;;;;;;4984138;28;20250;-78
2023/10/24 12:19:15;;;;;;;16.13;5.40;;;23.00;99.90;;;;;;4965008;28;20208;-79
2023/10/24 12:21:46;;;;;;;13.23;4.97;;;23.00;99.90;;;;;;4967130;28;20230;-79
2023/10/24 12:24:17;;;;;;;12.63;4.35;;;23.00;99.90;;;;;;4957049;28;20621;-79
2023/10/24 12:26:47;;;;;;;12.68;4.60;;;22.90;99.90;;;;;;4958547;28;20259;-80
2023/10/24 12:29:18;;;;;;;13.07;4.93;;;22.90;99.90;;;;;;4968896;28;20196;-79
2023/10/24 12:31:49;;;;;;;12.50;4.65;;;22.90;99.90;;;;;;4970771;28;20342;-79
2023/10/24 12:34:22;;;;;;;14.00;4.82;;;22.90;99.90;;;;;;4973474;28;20199;-79
2023/10/24 12:36:54;;;;;;;18.55;5.00;;;22.80;99.90;;;;;;4977746;28;20199;-78
2023/10/24 12:39:25;;;;;;;16.25;4.60;;;22.80;99.90;;;;;;4973069;28;20200;-78
2023/10/24 12:41:56;;;;;;;17.15;4.85;;;22.70;99.90;;;;;;4962631;28;20597;-78
2023/10/24 12:44:26;;;;;;;12.88;4.53;;;22.70;99.90;;;;;;4976848;28;20217;-78
2023/10/24 12:46:57;;;;;;;17.25;5.10;;;22.60;99.90;;;;;;4979189;28;20206;-78
2023/10/24 12:49:30;;;;;;;14.85;5.18;;;22.60;99.90;;;;;;4961367;28;20207;-78
2023/10/24 12:52:01;;;;;;;17.35;5.22;;;22.50;99.90;;;;;;4957327;28;20198;-78
2023/10/24 12:54:31;;;;;;;19.75;4.93;;;22.50;99.90;;;;;;4965532;28;20207;-79
2023/10/24 12:57:02;;;;;;;16.30;5.25;;;22.50;99.90;;;;;;4954270;28;20231;-78
2023/10/24 12:59:33;;;;;;;14.57;4.72;;;22.40;99.90;;;;;;4969456;28;20282;-77
2023/10/24 13:02:04;;;;;;;16.90;5.28;;;22.40;99.90;;;;;;4972483;28;20235;-77
2023/10/24 13:04:37;;;;;;;17.08;5.00;;;22.40;99.90;;;;;;4971262;28;20204;-78
2023/10/24 13:07:08;;;;;;;19.10;5.25;;;22.30;99.90;;;;;;4970566;28;20203;-78
2023/10/24 13:09:39;;;;;;;15.18;4.82;;;22.30;99.90;;;;;;4972754;28;20188;-78
2023/10/24 13:12:10;;;;;;;22.33;5.53;;;22.30;99.90;;;;;;4971446;28;20211;-78
2023/10/24 13:14:41;;;;;;;12.77;4.50;;;22.30;99.90;;;;;;4967213;28;20211;-78
2023/10/24 13:17:13;;;;;;;19.02;5.43;;;22.20;99.90;;;;;;4967646;28;20234;-77
2023/10/24 13:19:46;;;;;;;14.02;4.93;;;22.30;99.90;;;;;;4966649;28;20719;-77
2023/10/24 13:22:17;;;;;;;19.70;5.10;;;22.20;99.90;;;;;;4971222;28;20233;-78
2023/10/24 13:24:49;;;;;;;15.88;4.88;;;22.20;99.90;;;;;;4975480;28;20286;-78
2023/10/24 13:27:20;;;;;;;20.10;5.38;;;22.30;99.90;;;;;;4974998;28;20203;-77
2023/10/24 13:29:51;;;;;;;17.30;5.05;;;22.30;99.90;;;;;;4970670;28;20667;-77
2023/10/24 13:32:21;;;;;;;13.75;4.78;;;22.30;99.90;;;;;;4975110;28;20210;-78